Tropical Cyclones
[Index]
Season 2019-2020 Tropical Cyclone DIANE Track Map
Season 2019-2020 Summaries (Operational Data): [AU] [SIO] [SPAC] [SH]
<<- Previous TC | 2019-2020 Season | Next TC ->>

click for intensity scale information  Lat/long Grid: Show Hide

 Date Labels: Show Hide

Operational Tropical Cyclone Data

Name: DIANE
Number: 2010

19 Jan 2020 12:00 UTC to 30 Jan 2020 00:00 UTC

    date/time    lat    long     hPa   cat  kts
2020-01-19 12   20.5    37.7    1010         15          
2020-01-19 18   20.2    38.4    1010         15          
2020-01-20 00   20.0    39.3    1002         15          
2020-01-20 06   19.6    40.3    1003         20          
2020-01-20 12   19.5    41.1    1003         20          
2020-01-20 18   19.5    41.6    1002         20          
2020-01-21 00   19.8    42.0    1002         20          
2020-01-21 06   19.0    41.3    1007         20          
2020-01-21 12   19.5    42.0    1007         20          
2020-01-21 18   19.5    42.8    1002         20          
2020-01-22 00   18.9    43.0    1002         20          
2020-01-22 06   17.3    43.0    1001         20          
2020-01-22 12   16.7    43.5     998         20          
2020-01-22 18   17.0    44.8    1004         20          
2020-01-23 00   17.2    46.1    1001         25          
2020-01-23 06   17.8    47.7    1005         20          
2020-01-23 12   18.1    48.9    1002         20          
2020-01-23 18   18.2    50.3    1004         30          
2020-01-24 00   18.4    52.3    1002         30          
2020-01-24 06   18.7    53.8    1000         30          
2020-01-24 12   19.1    55.4    1000    1    35          
2020-01-24 18   19.5    57.1    1002    1    40          
2020-01-25 00   20.1    58.7    1000    1    45          
2020-01-25 06   20.6    60.3    1000    1    45          
2020-01-25 12   21.4    62.1     998    1    45          
2020-01-25 18   22.0    64.0     996    1    45          
2020-01-26 00   23.0    65.9     994    2    50          
2020-01-26 06   23.7    67.7     992    1    45          
2020-01-26 12   24.0    68.8     990    1    40          
2020-01-26 18   23.8    70.1     987    1    40          
2020-01-27 00   24.3    71.1     987    1    40          
2020-01-27 06   25.0    71.3     993    1    40          
2020-01-27 12   26.2    71.4     987    1    35          
2020-01-27 18   26.6    71.3     985    1    40          
2020-01-28 00   27.6    70.6     985    1    40          
2020-01-28 06   29.1    69.2     993    1    40          
2020-01-28 12   29.8    68.2     993    1    40          
2020-01-28 18   30.3    67.2     995    1    35          
2020-01-29 00   31.3    66.5     994    1    35          
2020-01-29 06   32.5    66.3     996    1    35          
2020-01-29 12   34.2    65.9    1000         30          
2020-01-29 18   35.3    62.5    1008                     
2020-01-30 00   36.3    62.2    1009                     
Winds are 10-min average.

Tropical cyclone tracks developed by Michael Bath using operational warnings and advisories and Google Maps.


Document: tropical_cyclone_diane.htm
Updated: 17 June 2020
[Australian Severe Weather index] [Copyright Notice] [Email Contacts] [Search This Site] [Privacy Policy]


Main Index Home Page Stock Weather Photos Extreme Storms Discussion Storm News and Storm Chasing Reports Tropical Cyclones / Hurricanes / Typhoons Weather Data and Links Wild Fires / Bushfires Weather Observation Techniques Weather Picture Catalogue Tornado Pictures and Reports Stock Video Footage and DVDs for sale